Strona główna
METAR-TAF:

METAR-TAF

Lotnisko :

Port lotniczy Córdoba

Córdoba, Argentyna

Szerokość geograficzna: 31-19S, Długość geograficzna: 064-13W, wysokość: 484 m

Aktualna obserwacja pogody

Raport powstał 24 minut temu, godzina 19:00 UTC
Wiatr 6 kt od południowo-południowy zachód
Temperatura 13°C
Wilgotność 41%
Ciśnienie 1019 hPa
Widzialność 10 km lub więcej
Brak chmur poniżej 1500 m i brak chmur cumulonimbus

METAR: SACO 301900Z 20006KT CAVOK 13/00 Q1019 NOSIG

czas: 16:24 (19:24 UTC)

Prognoza

Raport powstał 2 godziny i 24 minut temu, godzina 17:00 UTC
Prognoza ważna od 30 godzina 18 UTC do 31 godzina 18 UTC
Wiatr 15 kt od południowy zachód
Widzialność 10 km lub więcej
Zachmurzenie całkowite na wysokości 4000 ft
Stopniowe zmiany
od 31 godzina 01 UTC do 31 godzina 04 UTC
Wiatr 5 kt od południowy zachód

TAF: SACO 301700Z 3018/3118 23015KT 9999 OVC040 TX14/3118Z TN02/3110Z BECMG 3101/3104 23005KT

Obserwacja i prognoza pogody dla ponad 4000 lotnisk (raport METAR i TAF).

Dostępne stacje oznaczono żółtymi i czerwonymi punktami na mapie.

Najedź kursorem aby zobaczyć nazwę stacji.

Kliknij aby zobaczyć obserwacje i prognozy pogody.

Aby zmienić mapę: kliknij na zielony przycisk z czarnym krzyżykiem, aby powiększyć; na zielony przycisk z myślnikiem, aby pomniejszyć; na zielone strzałki, aby przejść do map sąsiednich.


METAR-TAF: